sensor_id;sensor_type;location;lat;lon;timestamp;P1;durP1;ratioP1;P2;durP2;ratioP2
19521;SDS011;9905;52.126;5.596;2023-04-23T00:00:40;66.72;;;41.88;;
19521;SDS011;9905;52.126;5.596;2023-04-23T00:03:08;69.20;;;41.17;;
19521;SDS011;9905;52.126;5.596;2023-04-23T00:05:39;69.72;;;41.78;;
19521;SDS011;9905;52.126;5.596;2023-04-23T00:08:06;65.18;;;40.97;;
19521;SDS011;9905;52.126;5.596;2023-04-23T00:10:35;70.88;;;41.60;;
19521;SDS011;9905;52.126;5.596;2023-04-23T00:13:02;63.65;;;40.72;;
19521;SDS011;9905;52.126;5.596;2023-04-23T00:15:31;71.45;;;41.80;;
19521;SDS011;9905;52.126;5.596;2023-04-23T00:17:58;71.63;;;42.28;;
19521;SDS011;9905;52.126;5.596;2023-04-23T00:20:24;69.15;;;41.42;;
19521;SDS011;9905;52.126;5.596;2023-04-23T00:22:51;76.00;;;41.63;;
19521;SDS011;9905;52.126;5.596;2023-04-23T00:25:18;73.80;;;42.38;;
19521;SDS011;9905;52.126;5.596;2023-04-23T00:27:45;73.55;;;42.83;;
19521;SDS011;9905;52.126;5.596;2023-04-23T00:30:11;72.78;;;43.25;;
19521;SDS011;9905;52.126;5.596;2023-04-23T00:32:40;77.85;;;44.45;;
19521;SDS011;9905;52.126;5.596;2023-04-23T00:35:07;80.25;;;44.05;;
19521;SDS011;9905;52.126;5.596;2023-04-23T00:37:34;76.25;;;42.78;;
19521;SDS011;9905;52.126;5.596;2023-04-23T00:40:01;82.00;;;46.08;;
19521;SDS011;9905;52.126;5.596;2023-04-23T00:42:28;83.10;;;44.63;;
19521;SDS011;9905;52.126;5.596;2023-04-23T00:44:55;75.25;;;43.60;;
19521;SDS011;9905;52.126;5.596;2023-04-23T00:47:22;76.30;;;44.42;;
19521;SDS011;9905;52.126;5.596;2023-04-23T00:49:51;82.43;;;44.22;;
19521;SDS011;9905;52.126;5.596;2023-04-23T00:52:19;81.55;;;45.67;;
19521;SDS011;9905;52.126;5.596;2023-04-23T00:54:46;80.75;;;45.53;;
19521;SDS011;9905;52.126;5.596;2023-04-23T00:57:13;77.90;;;44.63;;
19521;SDS011;9905;52.126;5.596;2023-04-23T00:59:40;76.40;;;44.15;;
19521;SDS011;9905;52.126;5.596;2023-04-23T01:02:07;83.00;;;44.97;;
19521;SDS011;9905;52.126;5.596;2023-04-23T01:04:34;86.15;;;43.70;;
19521;SDS011;9905;52.126;5.596;2023-04-23T01:07:03;81.15;;;44.72;;
19521;SDS011;9905;52.126;5.596;2023-04-23T01:09:31;85.68;;;46.80;;
19521;SDS011;9905;52.126;5.596;2023-04-23T01:11:58;78.80;;;44.47;;
19521;SDS011;9905;52.126;5.596;2023-04-23T01:14:26;71.30;;;43.35;;
19521;SDS011;9905;52.126;5.596;2023-04-23T01:16:53;89.43;;;44.80;;
19521;SDS011;9905;52.126;5.596;2023-04-23T01:19:20;76.18;;;41.88;;
19521;SDS011;9905;52.126;5.596;2023-04-23T01:21:47;78.93;;;44.33;;
19521;SDS011;9905;52.126;5.596;2023-04-23T01:24:17;87.68;;;44.92;;
19521;SDS011;9905;52.126;5.596;2023-04-23T01:26:43;74.93;;;43.08;;
19521;SDS011;9905;52.126;5.596;2023-04-23T01:29:10;78.05;;;44.45;;
19521;SDS011;9905;52.126;5.596;2023-04-23T01:31:38;75.25;;;44.42;;
19521;SDS011;9905;52.126;5.596;2023-04-23T01:34:06;75.45;;;43.72;;
19521;SDS011;9905;52.126;5.596;2023-04-23T01:36:33;76.43;;;42.90;;
19521;SDS011;9905;52.126;5.596;2023-04-23T01:39:01;74.05;;;43.83;;
19521;SDS011;9905;52.126;5.596;2023-04-23T01:41:29;74.00;;;44.22;;
19521;SDS011;9905;52.126;5.596;2023-04-23T01:43:56;73.00;;;42.95;;
19521;SDS011;9905;52.126;5.596;2023-04-23T01:46:23;78.47;;;43.63;;
19521;SDS011;9905;52.126;5.596;2023-04-23T01:48:50;68.63;;;40.22;;
19521;SDS011;9905;52.126;5.596;2023-04-23T01:51:17;77.63;;;42.58;;
19521;SDS011;9905;52.126;5.596;2023-04-23T01:53:44;71.65;;;42.47;;
19521;SDS011;9905;52.126;5.596;2023-04-23T01:56:11;75.70;;;41.47;;
19521;SDS011;9905;52.126;5.596;2023-04-23T01:58:41;67.55;;;39.85;;
19521;SDS011;9905;52.126;5.596;2023-04-23T02:01:08;74.90;;;39.95;;
19521;SDS011;9905;52.126;5.596;2023-04-23T02:03:34;65.13;;;40.13;;
19521;SDS011;9905;52.126;5.596;2023-04-23T02:06:01;68.65;;;40.58;;
19521;SDS011;9905;52.126;5.596;2023-04-23T02:08:29;70.50;;;41.72;;
19521;SDS011;9905;52.126;5.596;2023-04-23T02:10:56;68.35;;;40.25;;
19521;SDS011;9905;52.126;5.596;2023-04-23T02:13:22;69.80;;;40.42;;
19521;SDS011;9905;52.126;5.596;2023-04-23T02:15:51;61.58;;;39.20;;
19521;SDS011;9905;52.126;5.596;2023-04-23T02:18:17;63.92;;;38.42;;
19521;SDS011;9905;52.126;5.596;2023-04-23T02:20:44;67.60;;;40.45;;
19521;SDS011;9905;52.126;5.596;2023-04-23T02:23:11;65.88;;;40.05;;
19521;SDS011;9905;52.126;5.596;2023-04-23T02:25:37;63.35;;;38.45;;
19521;SDS011;9905;52.126;5.596;2023-04-23T02:28:05;66.82;;;39.53;;
19521;SDS011;9905;52.126;5.596;2023-04-23T02:30:32;65.57;;;39.47;;
19521;SDS011;9905;52.126;5.596;2023-04-23T02:33:00;63.15;;;40.65;;
19521;SDS011;9905;52.126;5.596;2023-04-23T02:35:27;58.45;;;36.92;;
19521;SDS011;9905;52.126;5.596;2023-04-23T02:37:55;68.45;;;40.25;;
19521;SDS011;9905;52.126;5.596;2023-04-23T02:40:22;58.78;;;38.88;;
19521;SDS011;9905;52.126;5.596;2023-04-23T02:42:49;68.22;;;41.20;;
19521;SDS011;9905;52.126;5.596;2023-04-23T02:45:16;59.33;;;38.35;;
19521;SDS011;9905;52.126;5.596;2023-04-23T02:47:42;59.17;;;37.28;;
19521;SDS011;9905;52.126;5.596;2023-04-23T02:50:11;54.60;;;36.90;;
19521;SDS011;9905;52.126;5.596;2023-04-23T02:52:37;60.97;;;39.15;;
19521;SDS011;9905;52.126;5.596;2023-04-23T02:55:04;57.55;;;37.88;;
19521;SDS011;9905;52.126;5.596;2023-04-23T02:57:33;55.67;;;36.88;;
19521;SDS011;9905;52.126;5.596;2023-04-23T02:59:59;59.67;;;38.72;;
19521;SDS011;9905;52.126;5.596;2023-04-23T03:02:26;55.45;;;37.80;;
19521;SDS011;9905;52.126;5.596;2023-04-23T03:04:53;63.03;;;37.97;;
19521;SDS011;9905;52.126;5.596;2023-04-23T03:07:21;63.15;;;38.40;;
19521;SDS011;9905;52.126;5.596;2023-04-23T03:09:48;59.10;;;37.20;;
19521;SDS011;9905;52.126;5.596;2023-04-23T03:12:14;58.95;;;38.20;;
19521;SDS011;9905;52.126;5.596;2023-04-23T03:14:42;56.33;;;35.92;;
19521;SDS011;9905;52.126;5.596;2023-04-23T03:17:09;54.92;;;37.40;;
19521;SDS011;9905;52.126;5.596;2023-04-23T03:19:35;65.82;;;38.97;;
19521;SDS011;9905;52.126;5.596;2023-04-23T03:22:02;59.13;;;38.08;;
19521;SDS011;9905;52.126;5.596;2023-04-23T03:24:31;59.05;;;39.03;;
19521;SDS011;9905;52.126;5.596;2023-04-23T03:26:58;60.90;;;38.17;;
19521;SDS011;9905;52.126;5.596;2023-04-23T03:29:25;62.58;;;38.33;;
19521;SDS011;9905;52.126;5.596;2023-04-23T03:31:52;61.78;;;38.05;;
19521;SDS011;9905;52.126;5.596;2023-04-23T03:34:19;61.80;;;38.47;;
19521;SDS011;9905;52.126;5.596;2023-04-23T03:36:45;57.28;;;37.33;;
19521;SDS011;9905;52.126;5.596;2023-04-23T03:39:12;58.95;;;37.20;;
19521;SDS011;9905;52.126;5.596;2023-04-23T03:41:41;52.92;;;35.10;;
19521;SDS011;9905;52.126;5.596;2023-04-23T03:44:07;55.65;;;37.22;;
19521;SDS011;9905;52.126;5.596;2023-04-23T03:46:34;56.35;;;36.35;;
19521;SDS011;9905;52.126;5.596;2023-04-23T03:49:01;51.58;;;34.65;;
19521;SDS011;9905;52.126;5.596;2023-04-23T03:51:27;49.92;;;34.85;;
19521;SDS011;9905;52.126;5.596;2023-04-23T03:53:55;56.97;;;35.60;;
19521;SDS011;9905;52.126;5.596;2023-04-23T03:56:22;53.00;;;33.60;;
19521;SDS011;9905;52.126;5.596;2023-04-23T03:58:51;53.80;;;33.58;;
19521;SDS011;9905;52.126;5.596;2023-04-23T04:01:17;47.63;;;33.78;;
19521;SDS011;9905;52.126;5.596;2023-04-23T04:03:44;47.40;;;33.13;;
19521;SDS011;9905;52.126;5.596;2023-04-23T04:06:11;52.08;;;33.38;;
19521;SDS011;9905;52.126;5.596;2023-04-23T04:08:38;48.65;;;32.70;;
19521;SDS011;9905;52.126;5.596;2023-04-23T04:11:04;48.25;;;33.53;;
19521;SDS011;9905;52.126;5.596;2023-04-23T04:13:32;50.08;;;32.45;;
19521;SDS011;9905;52.126;5.596;2023-04-23T04:16:00;46.85;;;33.60;;
19521;SDS011;9905;52.126;5.596;2023-04-23T04:18:27;46.10;;;32.50;;
19521;SDS011;9905;52.126;5.596;2023-04-23T04:20:53;48.63;;;31.73;;
19521;SDS011;9905;52.126;5.596;2023-04-23T04:23:20;47.95;;;30.70;;
19521;SDS011;9905;52.126;5.596;2023-04-23T04:25:47;39.38;;;29.52;;
19521;SDS011;9905;52.126;5.596;2023-04-23T04:28:15;43.45;;;31.55;;
19521;SDS011;9905;52.126;5.596;2023-04-23T04:30:41;39.67;;;30.13;;
19521;SDS011;9905;52.126;5.596;2023-04-23T04:33:10;45.30;;;31.85;;
19521;SDS011;9905;52.126;5.596;2023-04-23T04:35:36;37.58;;;31.10;;
19521;SDS011;9905;52.126;5.596;2023-04-23T04:38:03;42.17;;;31.70;;
19521;SDS011;9905;52.126;5.596;2023-04-23T04:40:30;39.08;;;30.90;;
19521;SDS011;9905;52.126;5.596;2023-04-23T04:42:57;41.38;;;31.77;;
19521;SDS011;9905;52.126;5.596;2023-04-23T04:45:24;46.97;;;33.03;;
19521;SDS011;9905;52.126;5.596;2023-04-23T04:47:51;40.00;;;31.23;;
19521;SDS011;9905;52.126;5.596;2023-04-23T04:50:19;41.00;;;31.88;;
19521;SDS011;9905;52.126;5.596;2023-04-23T04:52:46;42.00;;;33.38;;
19521;SDS011;9905;52.126;5.596;2023-04-23T04:55:13;45.55;;;33.55;;
19521;SDS011;9905;52.126;5.596;2023-04-23T04:57:39;42.40;;;32.63;;
19521;SDS011;9905;52.126;5.596;2023-04-23T05:02:50;47.97;;;33.67;;
19521;SDS011;9905;52.126;5.596;2023-04-23T05:05:17;48.95;;;32.45;;
19521;SDS011;9905;52.126;5.596;2023-04-23T05:07:46;45.95;;;32.85;;
19521;SDS011;9905;52.126;5.596;2023-04-23T05:10:13;46.88;;;34.58;;
19521;SDS011;9905;52.126;5.596;2023-04-23T05:12:40;41.88;;;32.85;;
19521;SDS011;9905;52.126;5.596;2023-04-23T05:15:08;44.72;;;32.80;;
19521;SDS011;9905;52.126;5.596;2023-04-23T05:17:37;42.42;;;32.60;;
19521;SDS011;9905;52.126;5.596;2023-04-23T05:20:04;41.13;;;33.42;;
19521;SDS011;9905;52.126;5.596;2023-04-23T05:22:35;40.13;;;32.17;;
19521;SDS011;9905;52.126;5.596;2023-04-23T05:25:02;41.75;;;33.15;;
19521;SDS011;9905;52.126;5.596;2023-04-23T05:27:30;39.75;;;32.05;;
19521;SDS011;9905;52.126;5.596;2023-04-23T05:29:56;41.92;;;31.70;;
19521;SDS011;9905;52.126;5.596;2023-04-23T05:32:24;42.47;;;33.10;;
19521;SDS011;9905;52.126;5.596;2023-04-23T05:34:51;42.33;;;33.30;;
19521;SDS011;9905;52.126;5.596;2023-04-23T05:37:17;39.05;;;33.05;;
19521;SDS011;9905;52.126;5.596;2023-04-23T05:39:45;39.78;;;32.33;;
19521;SDS011;9905;52.126;5.596;2023-04-23T05:42:12;41.35;;;33.58;;
19521;SDS011;9905;52.126;5.596;2023-04-23T05:44:39;40.47;;;34.70;;
19521;SDS011;9905;52.126;5.596;2023-04-23T05:47:06;39.85;;;34.03;;
19521;SDS011;9905;52.126;5.596;2023-04-23T05:49:33;37.53;;;33.22;;
19521;SDS011;9905;52.126;5.596;2023-04-23T05:52:00;40.10;;;33.33;;
19521;SDS011;9905;52.126;5.596;2023-04-23T05:54:27;40.28;;;34.28;;
19521;SDS011;9905;52.126;5.596;2023-04-23T05:56:55;39.65;;;33.13;;
19521;SDS011;9905;52.126;5.596;2023-04-23T05:59:22;41.63;;;33.80;;
19521;SDS011;9905;52.126;5.596;2023-04-23T06:01:49;38.22;;;34.13;;
19521;SDS011;9905;52.126;5.596;2023-04-23T06:04:16;39.47;;;32.35;;
19521;SDS011;9905;52.126;5.596;2023-04-23T06:06:43;42.58;;;33.92;;
19521;SDS011;9905;52.126;5.596;2023-04-23T06:09:10;38.45;;;32.03;;
19521;SDS011;9905;52.126;5.596;2023-04-23T06:11:37;42.25;;;33.28;;
19521;SDS011;9905;52.126;5.596;2023-04-23T06:14:05;39.65;;;34.05;;
19521;SDS011;9905;52.126;5.596;2023-04-23T06:16:32;45.03;;;33.70;;
19521;SDS011;9905;52.126;5.596;2023-04-23T06:18:59;40.95;;;33.70;;
19521;SDS011;9905;52.126;5.596;2023-04-23T06:21:25;37.08;;;33.08;;
19521;SDS011;9905;52.126;5.596;2023-04-23T06:23:52;39.13;;;32.72;;
19521;SDS011;9905;52.126;5.596;2023-04-23T06:26:19;36.60;;;32.13;;
19521;SDS011;9905;52.126;5.596;2023-04-23T06:28:46;34.75;;;30.98;;
19521;SDS011;9905;52.126;5.596;2023-04-23T06:31:14;38.17;;;31.85;;
19521;SDS011;9905;52.126;5.596;2023-04-23T06:33:41;36.03;;;30.65;;
19521;SDS011;9905;52.126;5.596;2023-04-23T06:36:07;35.80;;;30.60;;
19521;SDS011;9905;52.126;5.596;2023-04-23T06:38:35;32.92;;;29.42;;
19521;SDS011;9905;52.126;5.596;2023-04-23T06:41:01;34.28;;;28.77;;
19521;SDS011;9905;52.126;5.596;2023-04-23T06:43:29;31.98;;;28.67;;
19521;SDS011;9905;52.126;5.596;2023-04-23T06:45:55;34.08;;;28.70;;
19521;SDS011;9905;52.126;5.596;2023-04-23T06:48:23;30.77;;;27.58;;
19521;SDS011;9905;52.126;5.596;2023-04-23T06:50:50;31.42;;;28.02;;
19521;SDS011;9905;52.126;5.596;2023-04-23T06:53:17;40.53;;;28.40;;
19521;SDS011;9905;52.126;5.596;2023-04-23T06:55:44;28.83;;;25.85;;
19521;SDS011;9905;52.126;5.596;2023-04-23T06:58:11;29.58;;;26.40;;
19521;SDS011;9905;52.126;5.596;2023-04-23T07:00:37;28.33;;;25.60;;
19521;SDS011;9905;52.126;5.596;2023-04-23T07:03:04;28.90;;;25.88;;
19521;SDS011;9905;52.126;5.596;2023-04-23T07:05:32;28.17;;;25.02;;
19521;SDS011;9905;52.126;5.596;2023-04-23T07:08:00;27.92;;;24.35;;
19521;SDS011;9905;52.126;5.596;2023-04-23T07:10:26;26.67;;;24.08;;
19521;SDS011;9905;52.126;5.596;2023-04-23T07:12:53;33.25;;;24.67;;
19521;SDS011;9905;52.126;5.596;2023-04-23T07:15:20;25.85;;;23.15;;
19521;SDS011;9905;52.126;5.596;2023-04-23T07:17:46;25.42;;;22.98;;
19521;SDS011;9905;52.126;5.596;2023-04-23T07:20:13;25.38;;;22.98;;
19521;SDS011;9905;52.126;5.596;2023-04-23T07:22:41;25.17;;;22.15;;
19521;SDS011;9905;52.126;5.596;2023-04-23T07:25:08;23.45;;;21.33;;
19521;SDS011;9905;52.126;5.596;2023-04-23T07:27:35;22.20;;;20.17;;
19521;SDS011;9905;52.126;5.596;2023-04-23T07:30:02;21.67;;;19.58;;
19521;SDS011;9905;52.126;5.596;2023-04-23T07:32:29;21.38;;;19.40;;
19521;SDS011;9905;52.126;5.596;2023-04-23T07:34:56;20.63;;;18.55;;
19521;SDS011;9905;52.126;5.596;2023-04-23T07:37:23;17.88;;;16.13;;
19521;SDS011;9905;52.126;5.596;2023-04-23T07:39:51;19.60;;;17.92;;
19521;SDS011;9905;52.126;5.596;2023-04-23T07:42:18;18.48;;;16.95;;
19521;SDS011;9905;52.126;5.596;2023-04-23T07:44:45;17.60;;;16.02;;
19521;SDS011;9905;52.126;5.596;2023-04-23T07:47:12;18.25;;;16.35;;
19521;SDS011;9905;52.126;5.596;2023-04-23T07:49:38;16.20;;;14.80;;
19521;SDS011;9905;52.126;5.596;2023-04-23T07:52:05;14.45;;;13.25;;
19521;SDS011;9905;52.126;5.596;2023-04-23T07:54:32;15.70;;;14.18;;
19521;SDS011;9905;52.126;5.596;2023-04-23T07:57:01;14.48;;;13.13;;
19521;SDS011;9905;52.126;5.596;2023-04-23T07:59:27;13.43;;;12.07;;
19521;SDS011;9905;52.126;5.596;2023-04-23T08:01:54;12.25;;;11.07;;
19521;SDS011;9905;52.126;5.596;2023-04-23T08:04:21;12.27;;;11.07;;
19521;SDS011;9905;52.126;5.596;2023-04-23T08:06:48;11.70;;;10.80;;
19521;SDS011;9905;52.126;5.596;2023-04-23T08:09:15;11.82;;;10.82;;
19521;SDS011;9905;52.126;5.596;2023-04-23T08:11:41;12.07;;;11.07;;
19521;SDS011;9905;52.126;5.596;2023-04-23T08:14:10;11.20;;;10.30;;
19521;SDS011;9905;52.126;5.596;2023-04-23T08:16:37;10.52;;;9.82;;
19521;SDS011;9905;52.126;5.596;2023-04-23T08:19:04;11.27;;;10.27;;
19521;SDS011;9905;52.126;5.596;2023-04-23T08:21:31;11.10;;;10.20;;
19521;SDS011;9905;52.126;5.596;2023-04-23T08:23:58;12.18;;;10.30;;
19521;SDS011;9905;52.126;5.596;2023-04-23T08:26:25;10.50;;;9.70;;
19521;SDS011;9905;52.126;5.596;2023-04-23T08:28:52;8.70;;;8.10;;
19521;SDS011;9905;52.126;5.596;2023-04-23T08:31:20;9.98;;;8.98;;
19521;SDS011;9905;52.126;5.596;2023-04-23T08:33:46;8.80;;;8.02;;
19521;SDS011;9905;52.126;5.596;2023-04-23T08:36:13;8.55;;;7.85;;
19521;SDS011;9905;52.126;5.596;2023-04-23T08:38:40;7.63;;;7.13;;
19521;SDS011;9905;52.126;5.596;2023-04-23T08:41:08;8.50;;;7.47;;
19521;SDS011;9905;52.126;5.596;2023-04-23T08:43:36;8.10;;;7.40;;
19521;SDS011;9905;52.126;5.596;2023-04-23T08:46:09;7.43;;;6.93;;
19521;SDS011;9905;52.126;5.596;2023-04-23T08:48:39;8.05;;;7.45;;
19521;SDS011;9905;52.126;5.596;2023-04-23T08:51:07;9.57;;;7.50;;
19521;SDS011;9905;52.126;5.596;2023-04-23T08:53:35;7.68;;;7.07;;
19521;SDS011;9905;52.126;5.596;2023-04-23T08:56:03;7.13;;;6.53;;
19521;SDS011;9905;52.126;5.596;2023-04-23T08:58:31;8.38;;;7.57;;
19521;SDS011;9905;52.126;5.596;2023-04-23T09:00:59;7.97;;;6.88;;
19521;SDS011;9905;52.126;5.596;2023-04-23T09:03:26;7.95;;;6.40;;
19521;SDS011;9905;52.126;5.596;2023-04-23T09:05:56;7.00;;;6.28;;
19521;SDS011;9905;52.126;5.596;2023-04-23T09:08:23;6.78;;;5.82;;
19521;SDS011;9905;52.126;5.596;2023-04-23T09:10:49;5.93;;;5.40;;
19521;SDS011;9905;52.126;5.596;2023-04-23T09:13:19;7.18;;;5.15;;
19521;SDS011;9905;52.126;5.596;2023-04-23T09:15:47;5.55;;;5.15;;
19521;SDS011;9905;52.126;5.596;2023-04-23T09:18:14;8.82;;;5.32;;
19521;SDS011;9905;52.126;5.596;2023-04-23T09:20:42;6.10;;;5.60;;
19521;SDS011;9905;52.126;5.596;2023-04-23T09:23:12;6.70;;;5.18;;
19521;SDS011;9905;52.126;5.596;2023-04-23T09:25:40;5.63;;;5.10;;
19521;SDS011;9905;52.126;5.596;2023-04-23T09:28:07;5.20;;;4.70;;
19521;SDS011;9905;52.126;5.596;2023-04-23T09:30:37;5.30;;;4.90;;
19521;SDS011;9905;52.126;5.596;2023-04-23T09:33:05;6.10;;;5.60;;
19521;SDS011;9905;52.126;5.596;2023-04-23T09:35:31;6.05;;;5.45;;
19521;SDS011;9905;52.126;5.596;2023-04-23T09:37:59;6.85;;;5.45;;
19521;SDS011;9905;52.126;5.596;2023-04-23T09:40:31;5.53;;;5.00;;
19521;SDS011;9905;52.126;5.596;2023-04-23T09:42:58;5.38;;;4.90;;
19521;SDS011;9905;52.126;5.596;2023-04-23T09:45:24;6.07;;;4.97;;
19521;SDS011;9905;52.126;5.596;2023-04-23T09:47:54;6.38;;;5.07;;
19521;SDS011;9905;52.126;5.596;2023-04-23T09:50:30;6.70;;;4.47;;
19521;SDS011;9905;52.126;5.596;2023-04-23T09:52:58;5.28;;;4.25;;
19521;SDS011;9905;52.126;5.596;2023-04-23T09:55:28;6.07;;;4.88;;
19521;SDS011;9905;52.126;5.596;2023-04-23T09:57:59;4.20;;;3.80;;
19521;SDS011;9905;52.126;5.596;2023-04-23T10:00:26;4.15;;;3.78;;
19521;SDS011;9905;52.126;5.596;2023-04-23T10:02:58;6.20;;;4.10;;
19521;SDS011;9905;52.126;5.596;2023-04-23T10:05:25;5.45;;;3.55;;
19521;SDS011;9905;52.126;5.596;2023-04-23T10:07:52;5.60;;;4.35;;
19521;SDS011;9905;52.126;5.596;2023-04-23T10:10:20;4.85;;;4.45;;
19521;SDS011;9905;52.126;5.596;2023-04-23T10:12:49;3.67;;;3.30;;
19521;SDS011;9905;52.126;5.596;2023-04-23T10:15:17;6.28;;;4.00;;
19521;SDS011;9905;52.126;5.596;2023-04-23T10:17:44;4.88;;;3.45;;
19521;SDS011;9905;52.126;5.596;2023-04-23T10:20:12;4.60;;;3.15;;
19521;SDS011;9905;52.126;5.596;2023-04-23T10:22:39;3.88;;;3.25;;
19521;SDS011;9905;52.126;5.596;2023-04-23T10:25:10;3.78;;;3.00;;
19521;SDS011;9905;52.126;5.596;2023-04-23T10:27:38;10.25;;;3.00;;
19521;SDS011;9905;52.126;5.596;2023-04-23T10:30:08;3.40;;;2.72;;
19521;SDS011;9905;52.126;5.596;2023-04-23T10:32:37;4.50;;;3.55;;
19521;SDS011;9905;52.126;5.596;2023-04-23T10:35:04;3.85;;;2.92;;
19521;SDS011;9905;52.126;5.596;2023-04-23T10:37:32;3.30;;;3.03;;
19521;SDS011;9905;52.126;5.596;2023-04-23T10:40:00;3.42;;;2.70;;
19521;SDS011;9905;52.126;5.596;2023-04-23T10:42:35;5.32;;;2.80;;
19521;SDS011;9905;52.126;5.596;2023-04-23T10:45:10;3.55;;;3.25;;
19521;SDS011;9905;52.126;5.596;2023-04-23T10:47:38;5.07;;;2.85;;
19521;SDS011;9905;52.126;5.596;2023-04-23T10:50:17;3.97;;;2.83;;
19521;SDS011;9905;52.126;5.596;2023-04-23T10:52:45;4.22;;;3.03;;
19521;SDS011;9905;52.126;5.596;2023-04-23T10:55:15;5.05;;;3.28;;
19521;SDS011;9905;52.126;5.596;2023-04-23T10:57:53;4.65;;;2.90;;
19521;SDS011;9905;52.126;5.596;2023-04-23T11:00:23;4.63;;;2.55;;
19521;SDS011;9905;52.126;5.596;2023-04-23T11:02:51;5.85;;;2.70;;
19521;SDS011;9905;52.126;5.596;2023-04-23T11:05:17;3.53;;;2.67;;
19521;SDS011;9905;52.126;5.596;2023-04-23T11:10:30;5.50;;;2.40;;
19521;SDS011;9905;52.126;5.596;2023-04-23T11:13:01;5.40;;;2.70;;
19521;SDS011;9905;52.126;5.596;2023-04-23T11:18:56;3.22;;;2.78;;
19521;SDS011;9905;52.126;5.596;2023-04-23T11:24:26;2.75;;;2.20;;
19521;SDS011;9905;52.126;5.596;2023-04-23T11:26:54;2.55;;;2.35;;
19521;SDS011;9905;52.126;5.596;2023-04-23T11:29:21;2.67;;;2.30;;
19521;SDS011;9905;52.126;5.596;2023-04-23T11:31:51;2.30;;;2.17;;
19521;SDS011;9905;52.126;5.596;2023-04-23T11:34:19;3.55;;;1.80;;
19521;SDS011;9905;52.126;5.596;2023-04-23T11:36:46;3.05;;;1.98;;
19521;SDS011;9905;52.126;5.596;2023-04-23T11:39:14;3.55;;;2.15;;
19521;SDS011;9905;52.126;5.596;2023-04-23T11:41:43;1.83;;;1.67;;
19521;SDS011;9905;52.126;5.596;2023-04-23T11:44:10;2.08;;;1.92;;
19521;SDS011;9905;52.126;5.596;2023-04-23T11:46:37;3.05;;;2.17;;
19521;SDS011;9905;52.126;5.596;2023-04-23T11:49:05;1.75;;;1.65;;
19521;SDS011;9905;52.126;5.596;2023-04-23T11:51:34;2.45;;;1.73;;
19521;SDS011;9905;52.126;5.596;2023-04-23T11:54:06;2.05;;;1.80;;
19521;SDS011;9905;52.126;5.596;2023-04-23T11:56:32;4.57;;;2.30;;
19521;SDS011;9905;52.126;5.596;2023-04-23T11:59:00;4.10;;;2.30;;
19521;SDS011;9905;52.126;5.596;2023-04-23T12:01:38;1.90;;;1.80;;
19521;SDS011;9905;52.126;5.596;2023-04-23T12:04:09;3.00;;;1.95;;
19521;SDS011;9905;52.126;5.596;2023-04-23T12:06:37;5.10;;;2.15;;
19521;SDS011;9905;52.126;5.596;2023-04-23T12:09:05;1.80;;;1.70;;
19521;SDS011;9905;52.126;5.596;2023-04-23T12:11:34;3.40;;;1.83;;
19521;SDS011;9905;52.126;5.596;2023-04-23T12:14:01;2.67;;;1.95;;
19521;SDS011;9905;52.126;5.596;2023-04-23T12:16:34;2.20;;;2.00;;
19521;SDS011;9905;52.126;5.596;2023-04-23T12:19:02;2.10;;;1.90;;
19521;SDS011;9905;52.126;5.596;2023-04-23T12:21:33;6.57;;;1.67;;
19521;SDS011;9905;52.126;5.596;2023-04-23T12:24:02;2.40;;;2.00;;
19521;SDS011;9905;52.126;5.596;2023-04-23T12:26:30;2.58;;;1.52;;
19521;SDS011;9905;52.126;5.596;2023-04-23T12:28:58;2.65;;;2.05;;
19521;SDS011;9905;52.126;5.596;2023-04-23T12:31:25;3.53;;;1.83;;
19521;SDS011;9905;52.126;5.596;2023-04-23T12:33:56;3.15;;;1.80;;
19521;SDS011;9905;52.126;5.596;2023-04-23T12:36:26;2.20;;;2.00;;
19521;SDS011;9905;52.126;5.596;2023-04-23T12:38:56;3.50;;;2.17;;
19521;SDS011;9905;52.126;5.596;2023-04-23T12:41:44;2.45;;;1.90;;
19521;SDS011;9905;52.126;5.596;2023-04-23T12:44:11;2.38;;;2.17;;
19521;SDS011;9905;52.126;5.596;2023-04-23T12:46:38;4.25;;;2.15;;
19521;SDS011;9905;52.126;5.596;2023-04-23T12:49:04;2.28;;;2.08;;
19521;SDS011;9905;52.126;5.596;2023-04-23T12:51:31;3.53;;;1.90;;
19521;SDS011;9905;52.126;5.596;2023-04-23T12:53:59;3.92;;;2.15;;
19521;SDS011;9905;52.126;5.596;2023-04-23T12:56:26;3.17;;;2.08;;
19521;SDS011;9905;52.126;5.596;2023-04-23T12:58:53;2.53;;;1.80;;
19521;SDS011;9905;52.126;5.596;2023-04-23T13:01:20;2.13;;;1.98;;
19521;SDS011;9905;52.126;5.596;2023-04-23T13:03:47;3.88;;;2.28;;
19521;SDS011;9905;52.126;5.596;2023-04-23T13:06:13;2.78;;;2.30;;
19521;SDS011;9905;52.126;5.596;2023-04-23T13:08:40;1.70;;;1.60;;
19521;SDS011;9905;52.126;5.596;2023-04-23T13:11:08;2.30;;;1.98;;
19521;SDS011;9905;52.126;5.596;2023-04-23T13:13:35;2.85;;;1.90;;
19521;SDS011;9905;52.126;5.596;2023-04-23T13:16:02;3.40;;;2.28;;
19521;SDS011;9905;52.126;5.596;2023-04-23T13:18:28;2.05;;;1.95;;
19521;SDS011;9905;52.126;5.596;2023-04-23T13:20:55;1.85;;;1.75;;
19521;SDS011;9905;52.126;5.596;2023-04-23T13:23:23;1.95;;;1.85;;
19521;SDS011;9905;52.126;5.596;2023-04-23T13:25:50;2.50;;;2.08;;
19521;SDS011;9905;52.126;5.596;2023-04-23T13:28:18;3.22;;;2.30;;
19521;SDS011;9905;52.126;5.596;2023-04-23T13:30:45;2.25;;;1.83;;
19521;SDS011;9905;52.126;5.596;2023-04-23T13:33:12;3.42;;;1.73;;
19521;SDS011;9905;52.126;5.596;2023-04-23T13:35:38;2.78;;;1.80;;
19521;SDS011;9905;52.126;5.596;2023-04-23T13:38:05;3.53;;;2.10;;
19521;SDS011;9905;52.126;5.596;2023-04-23T13:40:32;2.83;;;1.85;;
19521;SDS011;9905;52.126;5.596;2023-04-23T13:42:59;3.25;;;1.77;;
19521;SDS011;9905;52.126;5.596;2023-04-23T13:45:27;2.10;;;2.00;;
19521;SDS011;9905;52.126;5.596;2023-04-23T13:47:54;2.08;;;1.85;;
19521;SDS011;9905;52.126;5.596;2023-04-23T13:50:21;2.00;;;1.90;;
19521;SDS011;9905;52.126;5.596;2023-04-23T13:52:47;2.42;;;2.08;;
19521;SDS011;9905;52.126;5.596;2023-04-23T13:55:14;2.72;;;1.50;;
19521;SDS011;9905;52.126;5.596;2023-04-23T13:57:41;2.33;;;1.85;;
19521;SDS011;9905;52.126;5.596;2023-04-23T14:00:08;1.92;;;1.83;;
19521;SDS011;9905;52.126;5.596;2023-04-23T14:02:38;2.78;;;2.03;;
19521;SDS011;9905;52.126;5.596;2023-04-23T14:05:05;2.92;;;2.75;;
19521;SDS011;9905;52.126;5.596;2023-04-23T14:07:32;4.07;;;2.13;;
19521;SDS011;9905;52.126;5.596;2023-04-23T14:09:59;3.17;;;2.00;;
19521;SDS011;9905;52.126;5.596;2023-04-23T14:12:26;1.90;;;1.80;;
19521;SDS011;9905;52.126;5.596;2023-04-23T14:14:53;3.08;;;2.53;;
19521;SDS011;9905;52.126;5.596;2023-04-23T14:17:20;3.53;;;2.00;;
19521;SDS011;9905;52.126;5.596;2023-04-23T14:19:48;2.03;;;1.92;;
19521;SDS011;9905;52.126;5.596;2023-04-23T14:22:15;2.00;;;1.90;;
19521;SDS011;9905;52.126;5.596;2023-04-23T14:24:43;1.90;;;1.80;;
19521;SDS011;9905;52.126;5.596;2023-04-23T14:27:10;2.47;;;1.60;;
19521;SDS011;9905;52.126;5.596;2023-04-23T14:29:39;2.17;;;1.70;;
19521;SDS011;9905;52.126;5.596;2023-04-23T14:32:10;2.35;;;1.52;;
19521;SDS011;9905;52.126;5.596;2023-04-23T14:34:38;3.22;;;1.80;;
19521;SDS011;9905;52.126;5.596;2023-04-23T14:37:06;2.60;;;1.80;;
19521;SDS011;9905;52.126;5.596;2023-04-23T14:39:33;2.13;;;2.03;;
19521;SDS011;9905;52.126;5.596;2023-04-23T14:41:59;1.77;;;1.67;;
19521;SDS011;9905;52.126;5.596;2023-04-23T14:44:26;2.75;;;1.75;;
19521;SDS011;9905;52.126;5.596;2023-04-23T14:46:53;3.15;;;1.65;;
19521;SDS011;9905;52.126;5.596;2023-04-23T14:49:20;2.20;;;2.10;;
19521;SDS011;9905;52.126;5.596;2023-04-23T14:51:47;5.60;;;2.30;;
19521;SDS011;9905;52.126;5.596;2023-04-23T14:54:16;3.45;;;2.03;;
19521;SDS011;9905;52.126;5.596;2023-04-23T14:56:43;3.92;;;1.92;;
19521;SDS011;9905;52.126;5.596;2023-04-23T14:59:10;2.53;;;1.85;;